sensor_id;sensor_type;location;lat;lon;timestamp;pressure;altitude;pressure_sealevel;temperature;humidity
76726;BME280;65651;53.154;17.916;2023-12-20T00:01:24;100106.40;;;5.79;93.72
76726;BME280;65651;53.154;17.916;2023-12-20T00:03:53;100105.02;;;5.79;94.11
76726;BME280;65651;53.154;17.916;2023-12-20T00:06:20;100111.48;;;5.78;93.83
76726;BME280;65651;53.154;17.916;2023-12-20T00:08:47;100109.39;;;5.78;93.75
76726;BME280;65651;53.154;17.916;2023-12-20T00:11:15;100111.70;;;5.78;93.95
76726;BME280;65651;53.154;17.916;2023-12-20T00:13:43;100106.02;;;5.78;93.81
76726;BME280;65651;53.154;17.916;2023-12-20T00:16:10;100100.66;;;5.78;93.97
76726;BME280;65651;53.154;17.916;2023-12-20T00:18:37;100104.88;;;5.78;93.96
76726;BME280;65651;53.154;17.916;2023-12-20T00:21:05;100100.75;;;5.79;93.91
76726;BME280;65651;53.154;17.916;2023-12-20T00:23:33;100101.77;;;5.79;93.96
76726;BME280;65651;53.154;17.916;2023-12-20T00:26:00;100100.42;;;5.80;93.82
76726;BME280;65651;53.154;17.916;2023-12-20T00:28:27;100097.84;;;5.82;94.02
76726;BME280;65651;53.154;17.916;2023-12-20T00:30:54;100094.66;;;5.81;94.02
76726;BME280;65651;53.154;17.916;2023-12-20T00:33:22;100087.64;;;5.82;94.03
76726;BME280;65651;53.154;17.916;2023-12-20T00:35:49;100088.63;;;5.83;94.06
76726;BME280;65651;53.154;17.916;2023-12-20T00:38:17;100084.23;;;5.85;93.89
76726;BME280;65651;53.154;17.916;2023-12-20T00:40:44;100085.28;;;5.85;94.09
76726;BME280;65651;53.154;17.916;2023-12-20T00:43:12;100086.05;;;5.86;93.90
76726;BME280;65651;53.154;17.916;2023-12-20T00:45:39;100090.21;;;5.87;94.13
76726;BME280;65651;53.154;17.916;2023-12-20T00:48:07;100090.68;;;5.88;93.79
76726;BME280;65651;53.154;17.916;2023-12-20T00:50:34;100088.19;;;5.88;93.76
76726;BME280;65651;53.154;17.916;2023-12-20T00:53:01;100088.77;;;5.90;94.00
76726;BME280;65651;53.154;17.916;2023-12-20T00:55:29;100086.23;;;5.90;93.97
76726;BME280;65651;53.154;17.916;2023-12-20T00:57:56;100083.02;;;5.90;94.00
76726;BME280;65651;53.154;17.916;2023-12-20T01:00:23;100086.73;;;5.91;94.03
76726;BME280;65651;53.154;17.916;2023-12-20T01:02:50;100082.07;;;5.91;94.04
76726;BME280;65651;53.154;17.916;2023-12-20T01:05:18;100077.91;;;5.92;94.01
76726;BME280;65651;53.154;17.916;2023-12-20T01:07:46;100078.27;;;5.92;93.94
76726;BME280;65651;53.154;17.916;2023-12-20T01:10:13;100078.23;;;5.92;94.02
76726;BME280;65651;53.154;17.916;2023-12-20T01:12:40;100071.44;;;5.93;94.04
76726;BME280;65651;53.154;17.916;2023-12-20T01:15:08;100068.45;;;5.92;93.96
76726;BME280;65651;53.154;17.916;2023-12-20T01:17:35;100066.63;;;5.93;94.11
76726;BME280;65651;53.154;17.916;2023-12-20T01:20:03;100063.96;;;5.93;93.96
76726;BME280;65651;53.154;17.916;2023-12-20T01:22:31;100062.98;;;5.94;93.89
76726;BME280;65651;53.154;17.916;2023-12-20T01:24:59;100061.91;;;5.94;93.88
76726;BME280;65651;53.154;17.916;2023-12-20T01:27:26;100063.84;;;5.94;93.96
76726;BME280;65651;53.154;17.916;2023-12-20T01:29:53;100064.19;;;5.94;94.19
76726;BME280;65651;53.154;17.916;2023-12-20T01:32:21;100057.77;;;5.94;94.02
76726;BME280;65651;53.154;17.916;2023-12-20T01:34:48;100057.95;;;5.95;93.89
76726;BME280;65651;53.154;17.916;2023-12-20T01:37:16;100056.46;;;5.95;93.87
76726;BME280;65651;53.154;17.916;2023-12-20T01:39:43;100051.95;;;5.96;94.00
76726;BME280;65651;53.154;17.916;2023-12-20T01:42:10;100045.96;;;5.97;93.82
76726;BME280;65651;53.154;17.916;2023-12-20T01:44:37;100040.88;;;5.97;93.96
76726;BME280;65651;53.154;17.916;2023-12-20T01:47:05;100040.48;;;5.97;94.09
76726;BME280;65651;53.154;17.916;2023-12-20T01:49:33;100039.73;;;5.97;93.87
76726;BME280;65651;53.154;17.916;2023-12-20T01:52:00;100038.77;;;5.98;94.14
76726;BME280;65651;53.154;17.916;2023-12-20T01:54:27;100033.26;;;5.98;94.10
76726;BME280;65651;53.154;17.916;2023-12-20T01:56:55;100031.11;;;5.98;94.18
76726;BME280;65651;53.154;17.916;2023-12-20T01:59:22;100031.56;;;5.99;94.08
76726;BME280;65651;53.154;17.916;2023-12-20T02:01:50;100031.17;;;5.99;94.09
76726;BME280;65651;53.154;17.916;2023-12-20T02:04:21;100031.32;;;6.00;94.00
76726;BME280;65651;53.154;17.916;2023-12-20T02:06:49;100036.75;;;6.01;93.81
76726;BME280;65651;53.154;17.916;2023-12-20T02:09:19;100038.95;;;6.00;94.01
76726;BME280;65651;53.154;17.916;2023-12-20T02:11:46;100034.35;;;6.00;94.00
76726;BME280;65651;53.154;17.916;2023-12-20T02:14:13;100030.59;;;6.00;93.92
76726;BME280;65651;53.154;17.916;2023-12-20T02:16:43;100024.54;;;6.00;94.20
76726;BME280;65651;53.154;17.916;2023-12-20T02:19:13;100023.73;;;5.99;94.26
76726;BME280;65651;53.154;17.916;2023-12-20T02:21:44;100020.77;;;5.98;94.20
76726;BME280;65651;53.154;17.916;2023-12-20T02:24:12;100020.04;;;5.98;94.16
76726;BME280;65651;53.154;17.916;2023-12-20T02:26:40;100018.13;;;5.98;94.02
76726;BME280;65651;53.154;17.916;2023-12-20T02:29:08;100017.98;;;5.97;94.04
76726;BME280;65651;53.154;17.916;2023-12-20T02:31:35;100016.55;;;5.98;94.32
76726;BME280;65651;53.154;17.916;2023-12-20T02:34:02;100011.14;;;5.98;94.41
76726;BME280;65651;53.154;17.916;2023-12-20T02:36:30;100007.52;;;5.97;94.36
76726;BME280;65651;53.154;17.916;2023-12-20T02:38:57;100013.98;;;5.96;94.24
76726;BME280;65651;53.154;17.916;2023-12-20T02:41:24;100009.41;;;5.96;94.09
76726;BME280;65651;53.154;17.916;2023-12-20T02:43:51;100007.71;;;5.92;94.25
76726;BME280;65651;53.154;17.916;2023-12-20T02:46:18;100002.95;;;5.87;94.37
76726;BME280;65651;53.154;17.916;2023-12-20T02:48:46;100004.27;;;5.88;94.44
76726;BME280;65651;53.154;17.916;2023-12-20T02:51:14;100007.04;;;5.87;94.22
76726;BME280;65651;53.154;17.916;2023-12-20T02:53:41;100008.73;;;5.86;94.55
76726;BME280;65651;53.154;17.916;2023-12-20T02:56:08;100010.39;;;5.86;94.34
76726;BME280;65651;53.154;17.916;2023-12-20T02:58:35;100007.39;;;5.85;94.43
76726;BME280;65651;53.154;17.916;2023-12-20T03:01:02;100002.60;;;5.87;94.56
76726;BME280;65651;53.154;17.916;2023-12-20T03:03:31;100005.18;;;5.86;94.59
76726;BME280;65651;53.154;17.916;2023-12-20T03:05:59;100001.73;;;5.87;94.64
76726;BME280;65651;53.154;17.916;2023-12-20T03:08:26;100002.23;;;5.87;94.53
76726;BME280;65651;53.154;17.916;2023-12-20T03:10:54;100001.48;;;5.88;94.53
76726;BME280;65651;53.154;17.916;2023-12-20T03:13:21;99996.36;;;5.87;94.51
76726;BME280;65651;53.154;17.916;2023-12-20T03:15:48;99997.96;;;5.87;94.44
76726;BME280;65651;53.154;17.916;2023-12-20T03:18:16;99996.52;;;5.87;94.52
76726;BME280;65651;53.154;17.916;2023-12-20T03:20:43;100001.81;;;5.88;94.35
76726;BME280;65651;53.154;17.916;2023-12-20T03:23:10;100000.74;;;5.88;94.49
76726;BME280;65651;53.154;17.916;2023-12-20T03:25:38;99999.45;;;5.88;94.26
76726;BME280;65651;53.154;17.916;2023-12-20T03:28:05;99999.14;;;5.88;94.50
76726;BME280;65651;53.154;17.916;2023-12-20T03:30:32;100000.61;;;5.88;94.27
76726;BME280;65651;53.154;17.916;2023-12-20T03:32:59;100003.02;;;5.86;94.50
76726;BME280;65651;53.154;17.916;2023-12-20T03:35:27;100002.13;;;5.86;94.34
76726;BME280;65651;53.154;17.916;2023-12-20T03:37:54;99998.30;;;5.85;94.44
76726;BME280;65651;53.154;17.916;2023-12-20T03:40:28;99996.36;;;5.85;94.23
76726;BME280;65651;53.154;17.916;2023-12-20T03:42:55;99997.62;;;5.85;94.21
76726;BME280;65651;53.154;17.916;2023-12-20T03:45:23;100001.52;;;5.85;94.31
76726;BME280;65651;53.154;17.916;2023-12-20T03:47:51;100002.14;;;5.84;94.46
76726;BME280;65651;53.154;17.916;2023-12-20T03:50:25;100004.36;;;5.83;94.48
76726;BME280;65651;53.154;17.916;2023-12-20T03:52:53;99996.91;;;5.81;94.35
76726;BME280;65651;53.154;17.916;2023-12-20T03:55:20;100001.64;;;5.80;94.05
76726;BME280;65651;53.154;17.916;2023-12-20T03:57:47;99996.38;;;5.79;94.47
76726;BME280;65651;53.154;17.916;2023-12-20T04:00:15;99994.66;;;5.78;94.27
76726;BME280;65651;53.154;17.916;2023-12-20T04:02:42;99990.46;;;5.77;94.43
76726;BME280;65651;53.154;17.916;2023-12-20T04:05:10;99988.64;;;5.78;94.19
76726;BME280;65651;53.154;17.916;2023-12-20T04:07:37;99992.91;;;5.78;94.35
76726;BME280;65651;53.154;17.916;2023-12-20T04:10:05;99994.60;;;5.77;94.38
76726;BME280;65651;53.154;17.916;2023-12-20T04:12:35;99993.57;;;5.76;94.25
76726;BME280;65651;53.154;17.916;2023-12-20T04:15:03;99995.85;;;5.75;94.07
76726;BME280;65651;53.154;17.916;2023-12-20T04:17:36;99996.64;;;5.74;94.26
76726;BME280;65651;53.154;17.916;2023-12-20T04:20:03;99993.38;;;5.73;94.09
76726;BME280;65651;53.154;17.916;2023-12-20T04:22:31;99995.81;;;5.71;94.11
76726;BME280;65651;53.154;17.916;2023-12-20T04:24:58;99994.45;;;5.70;93.92
76726;BME280;65651;53.154;17.916;2023-12-20T04:27:25;99993.98;;;5.69;94.04
76726;BME280;65651;53.154;17.916;2023-12-20T04:29:52;99990.86;;;5.69;94.06
76726;BME280;65651;53.154;17.916;2023-12-20T04:32:20;99990.80;;;5.67;94.15
76726;BME280;65651;53.154;17.916;2023-12-20T04:34:47;99987.39;;;5.65;94.05
76726;BME280;65651;53.154;17.916;2023-12-20T04:37:14;99988.09;;;5.63;93.91
76726;BME280;65651;53.154;17.916;2023-12-20T04:39:41;99995.04;;;5.61;94.21
76726;BME280;65651;53.154;17.916;2023-12-20T04:42:09;99999.48;;;5.59;93.97
76726;BME280;65651;53.154;17.916;2023-12-20T04:44:36;99993.90;;;5.57;94.14
76726;BME280;65651;53.154;17.916;2023-12-20T04:47:04;99995.45;;;5.56;93.97
76726;BME280;65651;53.154;17.916;2023-12-20T04:49:31;99998.20;;;5.55;94.04
76726;BME280;65651;53.154;17.916;2023-12-20T04:51:58;100001.83;;;5.55;93.98
76726;BME280;65651;53.154;17.916;2023-12-20T04:54:26;100002.38;;;5.52;94.04
76726;BME280;65651;53.154;17.916;2023-12-20T04:56:53;100006.10;;;5.50;93.77
76726;BME280;65651;53.154;17.916;2023-12-20T04:59:20;100007.85;;;5.49;93.86
76726;BME280;65651;53.154;17.916;2023-12-20T05:01:50;100001.02;;;5.47;93.70
76726;BME280;65651;53.154;17.916;2023-12-20T05:04:20;100008.21;;;5.46;93.76
76726;BME280;65651;53.154;17.916;2023-12-20T05:06:47;100014.19;;;5.45;93.76
76726;BME280;65651;53.154;17.916;2023-12-20T05:09:14;100014.29;;;5.44;93.76
76726;BME280;65651;53.154;17.916;2023-12-20T05:11:42;100012.39;;;5.41;93.82
76726;BME280;65651;53.154;17.916;2023-12-20T05:14:09;100008.25;;;5.37;93.83
76726;BME280;65651;53.154;17.916;2023-12-20T05:16:36;100003.45;;;5.33;93.50
76726;BME280;65651;53.154;17.916;2023-12-20T05:19:03;100006.24;;;5.29;93.52
76726;BME280;65651;53.154;17.916;2023-12-20T05:21:33;100005.62;;;5.26;93.50
76726;BME280;65651;53.154;17.916;2023-12-20T05:24:00;100006.00;;;5.24;93.74
76726;BME280;65651;53.154;17.916;2023-12-20T05:26:28;100003.55;;;5.21;93.88
76726;BME280;65651;53.154;17.916;2023-12-20T05:28:56;99998.52;;;5.20;93.65
76726;BME280;65651;53.154;17.916;2023-12-20T05:31:23;99994.77;;;5.18;93.76
76726;BME280;65651;53.154;17.916;2023-12-20T05:33:50;99999.09;;;5.17;93.64
76726;BME280;65651;53.154;17.916;2023-12-20T05:36:18;100006.91;;;5.15;93.82
76726;BME280;65651;53.154;17.916;2023-12-20T05:38:49;100002.77;;;5.11;93.59
76726;BME280;65651;53.154;17.916;2023-12-20T05:41:16;100002.91;;;5.07;93.61
76726;BME280;65651;53.154;17.916;2023-12-20T05:43:43;100000.73;;;5.01;93.71
76726;BME280;65651;53.154;17.916;2023-12-20T05:46:13;100008.88;;;4.95;93.76
76726;BME280;65651;53.154;17.916;2023-12-20T05:48:40;100007.75;;;4.90;93.77
76726;BME280;65651;53.154;17.916;2023-12-20T05:51:11;100002.05;;;4.83;93.74
76726;BME280;65651;53.154;17.916;2023-12-20T05:53:39;100000.42;;;4.77;93.90
76726;BME280;65651;53.154;17.916;2023-12-20T05:56:06;99999.09;;;4.71;93.72
76726;BME280;65651;53.154;17.916;2023-12-20T05:58:33;99994.38;;;4.66;93.73
76726;BME280;65651;53.154;17.916;2023-12-20T06:01:04;99993.59;;;4.60;93.52
76726;BME280;65651;53.154;17.916;2023-12-20T06:03:32;99990.64;;;4.55;93.74
76726;BME280;65651;53.154;17.916;2023-12-20T06:06:08;99988.01;;;4.48;93.88
76726;BME280;65651;53.154;17.916;2023-12-20T06:08:36;99988.47;;;4.42;94.03
76726;BME280;65651;53.154;17.916;2023-12-20T06:11:03;99986.61;;;4.37;93.63
76726;BME280;65651;53.154;17.916;2023-12-20T06:13:31;99991.81;;;4.31;93.82
76726;BME280;65651;53.154;17.916;2023-12-20T06:15:59;99998.58;;;4.27;93.88
76726;BME280;65651;53.154;17.916;2023-12-20T06:18:27;100002.27;;;4.22;93.68
76726;BME280;65651;53.154;17.916;2023-12-20T06:20:54;100002.64;;;4.18;93.91
76726;BME280;65651;53.154;17.916;2023-12-20T06:23:21;100004.16;;;4.14;93.89
76726;BME280;65651;53.154;17.916;2023-12-20T06:25:49;99999.46;;;4.11;94.17
76726;BME280;65651;53.154;17.916;2023-12-20T06:28:16;99999.63;;;4.07;93.79
76726;BME280;65651;53.154;17.916;2023-12-20T06:30:43;100000.34;;;4.02;93.93
76726;BME280;65651;53.154;17.916;2023-12-20T06:33:11;100006.53;;;3.97;93.68
76726;BME280;65651;53.154;17.916;2023-12-20T06:35:39;100004.66;;;3.94;93.91
76726;BME280;65651;53.154;17.916;2023-12-20T06:38:06;100004.78;;;3.90;93.91
76726;BME280;65651;53.154;17.916;2023-12-20T06:40:33;100002.84;;;3.88;94.16
76726;BME280;65651;53.154;17.916;2023-12-20T06:43:00;100007.48;;;3.85;94.02
76726;BME280;65651;53.154;17.916;2023-12-20T06:45:27;100006.30;;;3.82;93.88
76726;BME280;65651;53.154;17.916;2023-12-20T06:47:55;100008.61;;;3.80;93.68
76726;BME280;65651;53.154;17.916;2023-12-20T06:50:22;100002.19;;;3.78;93.99
76726;BME280;65651;53.154;17.916;2023-12-20T06:52:49;100002.36;;;3.76;94.00
76726;BME280;65651;53.154;17.916;2023-12-20T06:55:17;100000.96;;;3.73;93.94
76726;BME280;65651;53.154;17.916;2023-12-20T06:57:45;100006.58;;;3.71;93.92
76726;BME280;65651;53.154;17.916;2023-12-20T07:00:12;100008.20;;;3.71;93.78
76726;BME280;65651;53.154;17.916;2023-12-20T07:02:40;100005.99;;;3.70;93.75
76726;BME280;65651;53.154;17.916;2023-12-20T07:05:08;100007.82;;;3.71;94.02
76726;BME280;65651;53.154;17.916;2023-12-20T07:07:36;100011.81;;;3.73;93.89
76726;BME280;65651;53.154;17.916;2023-12-20T07:10:03;100006.32;;;3.73;93.82
76726;BME280;65651;53.154;17.916;2023-12-20T07:12:31;100009.96;;;3.76;93.77
76726;BME280;65651;53.154;17.916;2023-12-20T07:14:58;100016.48;;;3.77;93.83
76726;BME280;65651;53.154;17.916;2023-12-20T07:17:25;100019.69;;;3.76;93.96
76726;BME280;65651;53.154;17.916;2023-12-20T07:19:53;100023.54;;;3.75;93.77
76726;BME280;65651;53.154;17.916;2023-12-20T07:22:21;100022.98;;;3.73;93.78
76726;BME280;65651;53.154;17.916;2023-12-20T07:24:48;100026.84;;;3.71;93.59
76726;BME280;65651;53.154;17.916;2023-12-20T07:27:16;100031.59;;;3.70;93.70
76726;BME280;65651;53.154;17.916;2023-12-20T07:29:43;100024.84;;;3.67;93.66
76726;BME280;65651;53.154;17.916;2023-12-20T07:32:10;100023.97;;;3.65;93.60
76726;BME280;65651;53.154;17.916;2023-12-20T07:34:38;100021.70;;;3.62;94.02
76726;BME280;65651;53.154;17.916;2023-12-20T07:37:05;100024.79;;;3.61;94.03
76726;BME280;65651;53.154;17.916;2023-12-20T07:39:32;100025.20;;;3.60;93.95
76726;BME280;65651;53.154;17.916;2023-12-20T07:41:59;100023.23;;;3.60;93.74
76726;BME280;65651;53.154;17.916;2023-12-20T07:44:27;100025.27;;;3.62;93.80
76726;BME280;65651;53.154;17.916;2023-12-20T07:46:54;100025.56;;;3.65;93.81
76726;BME280;65651;53.154;17.916;2023-12-20T07:49:21;100030.42;;;3.66;93.73
76726;BME280;65651;53.154;17.916;2023-12-20T07:51:49;100028.31;;;3.66;93.72
76726;BME280;65651;53.154;17.916;2023-12-20T07:54:16;100026.79;;;3.63;93.84
76726;BME280;65651;53.154;17.916;2023-12-20T07:56:44;100021.40;;;3.61;93.48
76726;BME280;65651;53.154;17.916;2023-12-20T07:59:11;100020.38;;;3.58;93.72
76726;BME280;65651;53.154;17.916;2023-12-20T08:01:38;100027.21;;;3.57;93.64
76726;BME280;65651;53.154;17.916;2023-12-20T08:04:05;100036.98;;;3.57;93.66
76726;BME280;65651;53.154;17.916;2023-12-20T08:06:32;100039.22;;;3.58;93.63
76726;BME280;65651;53.154;17.916;2023-12-20T08:09:00;100031.98;;;3.60;93.29
76726;BME280;65651;53.154;17.916;2023-12-20T08:11:28;100031.99;;;3.62;93.64
76726;BME280;65651;53.154;17.916;2023-12-20T08:13:56;100032.34;;;3.64;93.72
76726;BME280;65651;53.154;17.916;2023-12-20T08:16:24;100032.48;;;3.67;93.47
76726;BME280;65651;53.154;17.916;2023-12-20T08:18:53;100029.73;;;3.70;93.46
76726;BME280;65651;53.154;17.916;2023-12-20T08:21:20;100028.92;;;3.72;93.54
76726;BME280;65651;53.154;17.916;2023-12-20T08:23:49;100023.05;;;3.76;93.66
76726;BME280;65651;53.154;17.916;2023-12-20T08:26:18;100020.66;;;3.80;93.49
76726;BME280;65651;53.154;17.916;2023-12-20T08:28:47;100021.10;;;3.84;93.50
76726;BME280;65651;53.154;17.916;2023-12-20T08:31:15;100019.90;;;3.86;93.59
76726;BME280;65651;53.154;17.916;2023-12-20T08:33:44;100026.27;;;3.88;93.46
76726;BME280;65651;53.154;17.916;2023-12-20T08:36:13;100025.02;;;3.90;93.46
76726;BME280;65651;53.154;17.916;2023-12-20T08:38:40;100023.20;;;3.91;93.42
76726;BME280;65651;53.154;17.916;2023-12-20T08:41:08;100026.62;;;3.90;93.36
76726;BME280;65651;53.154;17.916;2023-12-20T08:43:35;100028.24;;;3.88;93.34
76726;BME280;65651;53.154;17.916;2023-12-20T08:46:03;100024.64;;;3.86;93.35
76726;BME280;65651;53.154;17.916;2023-12-20T08:48:30;100022.95;;;3.85;93.37
76726;BME280;65651;53.154;17.916;2023-12-20T08:50:57;100018.30;;;3.83;93.52
76726;BME280;65651;53.154;17.916;2023-12-20T08:53:25;100010.69;;;3.83;93.31
76726;BME280;65651;53.154;17.916;2023-12-20T08:55:52;100011.05;;;3.85;93.09
76726;BME280;65651;53.154;17.916;2023-12-20T08:58:20;100006.95;;;3.88;93.03
76726;BME280;65651;53.154;17.916;2023-12-20T09:00:48;100003.33;;;3.89;93.35
76726;BME280;65651;53.154;17.916;2023-12-20T09:03:15;100003.09;;;3.91;93.51
76726;BME280;65651;53.154;17.916;2023-12-20T09:05:42;100000.46;;;4.02;93.46
76726;BME280;65651;53.154;17.916;2023-12-20T09:08:09;99996.17;;;4.12;93.10
76726;BME280;65651;53.154;17.916;2023-12-20T09:10:37;99992.34;;;4.16;93.34
76726;BME280;65651;53.154;17.916;2023-12-20T09:13:07;99990.44;;;4.26;93.30
76726;BME280;65651;53.154;17.916;2023-12-20T09:15:34;99984.92;;;4.40;93.05
76726;BME280;65651;53.154;17.916;2023-12-20T09:18:01;99982.17;;;4.56;92.99
76726;BME280;65651;53.154;17.916;2023-12-20T09:20:29;99982.88;;;4.65;92.84
76726;BME280;65651;53.154;17.916;2023-12-20T09:22:56;99981.48;;;4.69;92.93
76726;BME280;65651;53.154;17.916;2023-12-20T09:25:23;99984.73;;;4.73;92.77
76726;BME280;65651;53.154;17.916;2023-12-20T09:27:51;99980.27;;;4.77;92.59
76726;BME280;65651;53.154;17.916;2023-12-20T09:30:19;99980.98;;;4.84;92.65
76726;BME280;65651;53.154;17.916;2023-12-20T09:32:47;99980.65;;;4.97;92.36
76726;BME280;65651;53.154;17.916;2023-12-20T09:35:14;99981.38;;;5.01;92.21
76726;BME280;65651;53.154;17.916;2023-12-20T09:37:42;99983.67;;;4.99;92.15
76726;BME280;65651;53.154;17.916;2023-12-20T09:40:13;99981.52;;;5.01;92.18
76726;BME280;65651;53.154;17.916;2023-12-20T09:43:19;99981.84;;;5.08;91.71
76726;BME280;65651;53.154;17.916;2023-12-20T09:45:53;99965.16;;;5.21;91.96
76726;BME280;65651;53.154;17.916;2023-12-20T09:48:23;99957.14;;;5.27;91.33
76726;BME280;65651;53.154;17.916;2023-12-20T09:50:52;99945.92;;;5.29;91.49
76726;BME280;65651;53.154;17.916;2023-12-20T09:53:20;99936.08;;;5.32;91.18
76726;BME280;65651;53.154;17.916;2023-12-20T09:55:51;99930.91;;;5.34;90.96
76726;BME280;65651;53.154;17.916;2023-12-20T09:58:19;99932.70;;;5.41;91.16
76726;BME280;65651;53.154;17.916;2023-12-20T10:00:47;99930.27;;;5.48;90.66
76726;BME280;65651;53.154;17.916;2023-12-20T10:03:15;99928.64;;;5.53;90.74
76726;BME280;65651;53.154;17.916;2023-12-20T10:05:43;99922.95;;;5.59;90.16
76726;BME280;65651;53.154;17.916;2023-12-20T10:08:11;99921.90;;;5.69;89.98
76726;BME280;65651;53.154;17.916;2023-12-20T10:10:38;99921.31;;;5.78;89.66
76726;BME280;65651;53.154;17.916;2023-12-20T10:13:07;99923.29;;;5.88;89.51
76726;BME280;65651;53.154;17.916;2023-12-20T10:15:36;99923.40;;;5.93;89.36
76726;BME280;65651;53.154;17.916;2023-12-20T10:18:04;99914.50;;;5.90;89.17
76726;BME280;65651;53.154;17.916;2023-12-20T10:20:32;99907.08;;;5.86;89.04
76726;BME280;65651;53.154;17.916;2023-12-20T10:23:02;99905.20;;;5.83;89.22
76726;BME280;65651;53.154;17.916;2023-12-20T10:25:30;99904.04;;;5.74;88.63
76726;BME280;65651;53.154;17.916;2023-12-20T10:28:15;99901.63;;;5.65;88.58
76726;BME280;65651;53.154;17.916;2023-12-20T10:30:45;99896.92;;;5.57;88.87
76726;BME280;65651;53.154;17.916;2023-12-20T10:33:13;99888.49;;;5.54;89.16
76726;BME280;65651;53.154;17.916;2023-12-20T10:35:40;99887.34;;;5.51;88.58
76726;BME280;65651;53.154;17.916;2023-12-20T10:38:08;99884.52;;;5.48;88.99
76726;BME280;65651;53.154;17.916;2023-12-20T10:40:36;99879.18;;;5.48;89.14
76726;BME280;65651;53.154;17.916;2023-12-20T10:43:03;99880.64;;;5.48;89.00
76726;BME280;65651;53.154;17.916;2023-12-20T10:45:31;99881.35;;;5.46;89.05
76726;BME280;65651;53.154;17.916;2023-12-20T10:47:59;99874.90;;;5.44;88.86
76726;BME280;65651;53.154;17.916;2023-12-20T10:50:29;99873.15;;;5.42;88.76
76726;BME280;65651;53.154;17.916;2023-12-20T10:52:58;99867.48;;;5.37;89.01
76726;BME280;65651;53.154;17.916;2023-12-20T10:55:26;99863.67;;;5.32;88.69
76726;BME280;65651;53.154;17.916;2023-12-20T10:58:22;99858.50;;;5.28;88.50
76726;BME280;65651;53.154;17.916;2023-12-20T11:00:59;99856.79;;;5.27;89.07
76726;BME280;65651;53.154;17.916;2023-12-20T11:03:27;99852.87;;;5.25;88.74
76726;BME280;65651;53.154;17.916;2023-12-20T11:06:10;99842.73;;;5.23;88.48
76726;BME280;65651;53.154;17.916;2023-12-20T11:08:51;99843.51;;;5.22;88.77
76726;BME280;65651;53.154;17.916;2023-12-20T11:12:13;99835.92;;;5.19;88.84
76726;BME280;65651;53.154;17.916;2023-12-20T11:14:26;99825.48;;;5.17;88.86
76726;BME280;65651;53.154;17.916;2023-12-20T11:17:09;99821.11;;;5.16;88.66
76726;BME280;65651;53.154;17.916;2023-12-20T11:22:24;99808.86;;;5.11;88.61
76726;BME280;65651;53.154;17.916;2023-12-20T11:24:52;99805.94;;;5.10;88.65
76726;BME280;65651;53.154;17.916;2023-12-20T11:27:20;99796.11;;;5.10;88.72
76726;BME280;65651;53.154;17.916;2023-12-20T11:29:56;99793.08;;;5.12;88.79
76726;BME280;65651;53.154;17.916;2023-12-20T11:35:19;99784.27;;;5.14;88.61
76726;BME280;65651;53.154;17.916;2023-12-20T11:37:51;99777.96;;;5.15;88.58
76726;BME280;65651;53.154;17.916;2023-12-20T11:40:18;99773.20;;;5.17;88.71
76726;BME280;65651;53.154;17.916;2023-12-20T11:42:50;99770.48;;;5.19;88.50
76726;BME280;65651;53.154;17.916;2023-12-20T11:45:24;99763.53;;;5.19;88.52
76726;BME280;65651;53.154;17.916;2023-12-20T11:47:53;99760.86;;;5.17;88.86
76726;BME280;65651;53.154;17.916;2023-12-20T11:50:22;99757.35;;;5.17;89.12
76726;BME280;65651;53.154;17.916;2023-12-20T11:52:51;99754.64;;;5.15;89.13
76726;BME280;65651;53.154;17.916;2023-12-20T11:55:22;99746.04;;;5.12;89.03
76726;BME280;65651;53.154;17.916;2023-12-20T11:57:50;99739.98;;;5.10;89.25
76726;BME280;65651;53.154;17.916;2023-12-20T12:00:18;99741.23;;;5.07;89.16
76726;BME280;65651;53.154;17.916;2023-12-20T12:02:57;99735.27;;;5.06;89.55
76726;BME280;65651;53.154;17.916;2023-12-20T12:05:25;99725.49;;;5.06;89.37
76726;BME280;65651;53.154;17.916;2023-12-20T12:07:53;99728.22;;;5.08;89.22
76726;BME280;65651;53.154;17.916;2023-12-20T12:10:20;99724.06;;;5.08;89.18
76726;BME280;65651;53.154;17.916;2023-12-20T12:12:47;99718.45;;;5.08;88.92
76726;BME280;65651;53.154;17.916;2023-12-20T12:15:15;99715.78;;;5.06;89.34
76726;BME280;65651;53.154;17.916;2023-12-20T12:17:42;99711.62;;;5.04;89.30
76726;BME280;65651;53.154;17.916;2023-12-20T12:20:10;99709.79;;;5.03;89.03
76726;BME280;65651;53.154;17.916;2023-12-20T12:23:01;99705.27;;;5.02;89.43
76726;BME280;65651;53.154;17.916;2023-12-20T12:25:29;99698.65;;;4.98;89.25
76726;BME280;65651;53.154;17.916;2023-12-20T12:27:58;99690.84;;;4.98;89.69
76726;BME280;65651;53.154;17.916;2023-12-20T12:30:25;99687.98;;;4.99;89.61
76726;BME280;65651;53.154;17.916;2023-12-20T12:32:53;99684.35;;;4.95;89.67
76726;BME280;65651;53.154;17.916;2023-12-20T12:35:21;99685.06;;;4.93;89.73
76726;BME280;65651;53.154;17.916;2023-12-20T12:37:48;99684.45;;;4.90;89.56
76726;BME280;65651;53.154;17.916;2023-12-20T12:40:17;99678.85;;;4.87;89.79
76726;BME280;65651;53.154;17.916;2023-12-20T12:42:45;99671.29;;;4.86;89.73
76726;BME280;65651;53.154;17.916;2023-12-20T12:45:12;99670.15;;;4.84;89.76
76726;BME280;65651;53.154;17.916;2023-12-20T12:47:40;99666.80;;;4.82;89.95
76726;BME280;65651;53.154;17.916;2023-12-20T12:50:07;99664.41;;;4.79;90.13
76726;BME280;65651;53.154;17.916;2023-12-20T12:52:35;99660.05;;;4.76;90.38
76726;BME280;65651;53.154;17.916;2023-12-20T12:55:03;99657.20;;;4.74;90.37
76726;BME280;65651;53.154;17.916;2023-12-20T12:57:32;99647.90;;;4.73;90.55
76726;BME280;65651;53.154;17.916;2023-12-20T12:59:59;99649.92;;;4.71;90.62
76726;BME280;65651;53.154;17.916;2023-12-20T13:02:26;99654.56;;;4.74;90.61
76726;BME280;65651;53.154;17.916;2023-12-20T13:04:54;99655.48;;;4.73;90.44
76726;BME280;65651;53.154;17.916;2023-12-20T13:07:21;99653.40;;;4.73;90.49